createdAt,value
2022-08-19T00:01:39.133Z,78.73
2022-08-19T00:04:41.395Z,78.89
2022-08-19T00:07:44.047Z,78.97
2022-08-19T00:10:46.999Z,79.22
2022-08-19T00:13:51.106Z,79.23
2022-08-19T00:16:55.540Z,79.43
2022-08-19T00:19:57.523Z,79.56
2022-08-19T00:23:03.133Z,79.73
2022-08-19T00:26:05.989Z,79.95
2022-08-19T00:29:10.002Z,80.03
2022-08-19T00:32:11.879Z,80.20
2022-08-19T00:35:15.586Z,80.34
2022-08-19T00:38:17.277Z,80.47
2022-08-19T00:41:37.397Z,80.33
2022-08-19T00:44:42.339Z,80.31
2022-08-19T00:47:46.023Z,80.53
2022-08-19T00:50:52.212Z,80.66
2022-08-19T00:53:56.965Z,80.85
2022-08-19T00:57:00.446Z,80.99
2022-08-19T01:00:06.911Z,81.33
2022-08-19T01:03:11.889Z,81.51
2022-08-19T01:06:19.850Z,81.77
2022-08-19T01:09:23.053Z,81.72
2022-08-19T01:12:25.004Z,82.02
2022-08-19T01:15:31.475Z,82.19
2022-08-19T01:18:37.184Z,82.44
2022-08-19T01:21:45.587Z,82.49
2022-08-19T01:24:49.972Z,82.68
2022-08-19T01:27:53.614Z,82.82
2022-08-19T01:30:56.394Z,83.14
2022-08-19T01:33:59.501Z,83.15
2022-08-19T01:37:03.257Z,83.35
2022-08-19T01:40:09.300Z,83.35
2022-08-19T01:43:11.585Z,83.17
2022-08-19T01:46:13.935Z,83.28
2022-08-19T01:49:18.019Z,83.41
2022-08-19T01:52:20.789Z,83.53
2022-08-19T01:55:24.870Z,83.73
2022-08-19T01:58:31.420Z,84.12
2022-08-19T02:01:33.712Z,84.37
2022-08-19T02:04:36.695Z,84.52
2022-08-19T02:07:41.306Z,84.03
2022-08-19T02:10:44.690Z,84.54
2022-08-19T02:13:46.539Z,84.81
2022-08-19T02:16:49.009Z,85.20
2022-08-19T02:19:51.260Z,85.57
2022-08-19T02:22:53.581Z,85.84
2022-08-19T02:25:55.775Z,85.94
2022-08-19T02:28:57.655Z,85.89
2022-08-19T02:31:59.567Z,86.05
2022-08-19T02:35:01.840Z,86.15
2022-08-19T02:38:22.475Z,86.20
2022-08-19T02:41:27.969Z,86.37
2022-08-19T02:44:32.009Z,86.44
2022-08-19T02:47:34.932Z,86.46
2022-08-19T02:50:41.057Z,86.40
2022-08-19T02:53:55.557Z,86.48
2022-08-19T02:56:57.318Z,86.50
2022-08-19T02:59:59.711Z,86.64
2022-08-19T03:03:01.493Z,86.60
2022-08-19T03:06:06.115Z,86.61
2022-08-19T03:09:08.031Z,86.82
2022-08-19T03:12:11.332Z,86.96
2022-08-19T03:15:13.178Z,86.90
2022-08-19T03:18:15.829Z,87.02
2022-08-19T03:21:22.413Z,87.05
2022-08-19T03:24:24.794Z,87.24
2022-08-19T03:27:29.061Z,87.30
2022-08-19T03:30:36.147Z,86.85
2022-08-19T03:33:39.681Z,86.88
2022-08-19T03:36:41.993Z,87.22
2022-08-19T03:39:44.085Z,87.39
2022-08-19T03:42:49.105Z,87.61
2022-08-19T03:46:01.329Z,87.74
2022-08-19T03:49:08.542Z,87.86
2022-08-19T03:52:10.330Z,88.24
2022-08-19T03:55:12.393Z,88.50
2022-08-19T03:58:14.313Z,88.47
2022-08-19T04:01:19.073Z,88.62
2022-08-19T04:04:20.809Z,88.71
2022-08-19T04:07:22.685Z,88.76
2022-08-19T04:10:25.224Z,88.94
2022-08-19T04:13:27.326Z,89.01
2022-08-19T04:16:35.092Z,89.11
2022-08-19T04:19:37.991Z,89.13
2022-08-19T04:22:39.657Z,89.65
2022-08-19T04:25:43.696Z,89.76
2022-08-19T04:28:45.685Z,89.71
2022-08-19T04:31:47.660Z,89.84
2022-08-19T04:35:02.460Z,90.10
2022-08-19T04:38:12.070Z,90.27
2022-08-19T04:41:32.243Z,90.13
2022-08-19T04:44:36.256Z,90.07
2022-08-19T04:47:48.241Z,89.89
2022-08-19T04:50:59.921Z,90.16
2022-08-19T04:54:03.188Z,90.19
2022-08-19T04:57:07.796Z,90.04
2022-08-19T05:00:11.919Z,90.09
2022-08-19T05:03:14.499Z,89.94
2022-08-19T05:06:19.286Z,90.11
2022-08-19T05:09:22.809Z,90.42
2022-08-19T05:12:29.197Z,90.53
2022-08-19T05:15:32.234Z,90.22
2022-08-19T05:18:53.208Z,90.49
2022-08-19T05:22:13.770Z,91.00
2022-08-19T05:25:20.274Z,90.59
2022-08-19T05:28:22.365Z,92.19
2022-08-19T05:31:24.183Z,92.75
2022-08-19T05:34:27.417Z,91.39
2022-08-19T05:37:29.606Z,91.07
2022-08-19T05:40:31.337Z,90.40
2022-08-19T05:43:33.678Z,89.47
2022-08-19T05:46:35.924Z,88.02
2022-08-19T05:49:38.632Z,86.66
2022-08-19T05:52:43.737Z,85.78
2022-08-19T05:55:52.187Z,86.22
2022-08-19T05:58:55.289Z,85.74
2022-08-19T06:02:01.766Z,85.39
2022-08-19T06:05:08.048Z,84.58
2022-08-19T06:08:09.743Z,84.57
2022-08-19T06:11:47.898Z,84.31
2022-08-19T06:15:00.644Z,83.60
2022-08-19T06:18:04.633Z,82.54
2022-08-19T06:21:06.344Z,81.27
2022-08-19T06:24:10.550Z,79.79
2022-08-19T06:27:12.281Z,80.36
2022-08-19T06:30:14.553Z,80.79
2022-08-19T06:33:16.425Z,79.74
2022-08-19T06:36:35.028Z,79.20
2022-08-19T06:39:39.600Z,79.04
2022-08-19T06:42:44.840Z,77.84
2022-08-19T06:45:57.313Z,78.46
2022-08-19T06:49:01.886Z,78.58
2022-08-19T06:52:04.735Z,77.03
2022-08-19T06:55:06.979Z,75.81
2022-08-19T06:58:10.435Z,76.90
2022-08-19T07:01:12.215Z,76.16
2022-08-19T07:04:17.287Z,76.67
2022-08-19T07:07:22.162Z,76.77
2022-08-19T07:10:24.315Z,76.33
2022-08-19T07:13:27.627Z,76.23
2022-08-19T07:16:29.791Z,75.73
2022-08-19T07:19:32.471Z,74.53
2022-08-19T07:22:35.533Z,75.33
2022-08-19T07:25:38.942Z,74.79
2022-08-19T07:28:46.094Z,73.24
2022-08-19T07:31:57.508Z,73.19
2022-08-19T07:35:04.390Z,72.80
2022-08-19T07:38:06.112Z,72.29
2022-08-19T07:41:09.733Z,71.75
2022-08-19T07:44:12.381Z,71.57
2022-08-19T07:47:48.139Z,70.12
2022-08-19T07:50:38.346Z,69.39
2022-08-19T07:53:40.169Z,69.36
2022-08-19T07:56:42.084Z,69.62
2022-08-19T07:59:44.141Z,68.31
2022-08-19T08:02:45.876Z,67.61
2022-08-19T08:06:07.358Z,68.28
2022-08-19T08:09:13.595Z,66.71
2022-08-19T08:12:34.317Z,65.92
2022-08-19T08:15:42.741Z,65.14
2022-08-19T08:18:50.547Z,65.28
2022-08-19T08:21:57.609Z,65.33
2022-08-19T08:25:12.750Z,65.62
2022-08-19T08:28:17.969Z,66.15
2022-08-19T08:31:20.353Z,65.48
2022-08-19T08:34:22.291Z,64.42
2022-08-19T08:37:24.210Z,62.97
2022-08-19T08:40:32.300Z,62.45
2022-08-19T08:43:37.082Z,62.68
2022-08-19T08:46:43.358Z,62.95
2022-08-19T08:49:52.512Z,62.65
2022-08-19T08:52:57.838Z,62.15
2022-08-19T08:56:04.186Z,60.87
2022-08-19T08:59:14.268Z,59.97
2022-08-19T09:02:17.102Z,59.51
2022-08-19T09:05:25.918Z,59.08
2022-08-19T09:08:40.639Z,57.83
2022-08-19T09:11:45.827Z,57.29
2022-08-19T09:14:58.238Z,57.24
2022-08-19T09:18:02.893Z,56.48
2022-08-19T09:21:04.704Z,56.12
2022-08-19T09:24:07.212Z,56.53
2022-08-19T09:27:18.232Z,56.38
2022-08-19T09:30:25.027Z,56.93
2022-08-19T09:33:26.877Z,56.26
2022-08-19T09:36:34.576Z,55.23
2022-08-19T09:39:36.833Z,54.40
2022-08-19T09:42:49.644Z,54.63
2022-08-19T09:45:53.488Z,55.31
2022-08-19T09:48:57.887Z,54.61
2022-08-19T09:52:04.907Z,53.12
2022-08-19T09:55:08.529Z,53.39
2022-08-19T09:58:11.265Z,52.76
2022-08-19T10:01:25.511Z,53.10
2022-08-19T10:04:47.585Z,52.08
2022-08-19T10:07:49.676Z,52.75
2022-08-19T10:10:51.771Z,52.28
2022-08-19T10:13:53.732Z,51.28
2022-08-19T10:16:55.811Z,50.38
2022-08-19T10:19:57.538Z,50.48
2022-08-19T10:23:00.620Z,50.62
2022-08-19T10:26:07.008Z,49.93
2022-08-19T10:29:09.529Z,50.78
2022-08-19T10:32:11.493Z,50.65
2022-08-19T10:35:21.908Z,50.95
2022-08-19T10:38:31.269Z,50.76
2022-08-19T10:41:36.218Z,51.20
2022-08-19T10:44:38.056Z,50.46
2022-08-19T10:47:40.571Z,50.05
2022-08-19T10:51:00.853Z,49.36
2022-08-19T10:54:04.126Z,48.47
2022-08-19T10:57:08.709Z,48.84
2022-08-19T11:00:11.279Z,48.96
2022-08-19T11:03:13.272Z,48.15
2022-08-19T11:06:14.979Z,47.84
2022-08-19T11:09:19.738Z,48.46
2022-08-19T11:12:21.478Z,47.78
2022-08-19T11:15:23.524Z,46.97
2022-08-19T11:18:25.481Z,47.92
2022-08-19T11:21:33.313Z,47.75
2022-08-19T11:24:36.019Z,47.99
2022-08-19T11:27:45.756Z,48.30
2022-08-19T11:30:47.553Z,48.06
2022-08-19T11:33:54.551Z,48.22
2022-08-19T11:37:00.692Z,48.16
2022-08-19T11:40:02.436Z,47.64
2022-08-19T11:43:05.323Z,47.51
2022-08-19T11:46:09.616Z,47.34
2022-08-19T11:49:14.059Z,45.81
2022-08-19T11:52:16.469Z,45.75
2022-08-19T11:55:18.359Z,46.09
2022-08-19T11:58:20.295Z,45.05
2022-08-19T12:01:24.052Z,45.55
2022-08-19T12:04:25.903Z,46.12
2022-08-19T12:07:27.947Z,45.13
2022-08-19T12:10:29.757Z,44.08
2022-08-19T12:13:31.839Z,44.77
2022-08-19T12:16:34.135Z,43.88
2022-08-19T12:19:37.986Z,44.05
2022-08-19T12:22:42.165Z,45.05
2022-08-19T12:25:52.741Z,44.83
2022-08-19T12:28:54.854Z,44.08
2022-08-19T12:32:03.781Z,44.49
2022-08-19T12:35:07.988Z,44.60
2022-08-19T12:38:09.900Z,44.35
2022-08-19T12:41:15.107Z,44.22
2022-08-19T12:44:17.713Z,44.28
2022-08-19T12:47:22.065Z,44.77
2022-08-19T12:50:23.949Z,44.82
2022-08-19T12:53:26.059Z,44.88
2022-08-19T12:56:28.475Z,45.19
2022-08-19T12:59:30.381Z,44.86
2022-08-19T13:02:38.330Z,43.96
2022-08-19T13:05:41.516Z,44.46
2022-08-19T13:08:43.403Z,44.11
2022-08-19T13:11:48.412Z,43.88
2022-08-19T13:14:51.090Z,43.54
2022-08-19T13:17:54.911Z,41.71
2022-08-19T13:20:57.504Z,42.37
2022-08-19T13:23:59.720Z,41.89
2022-08-19T13:27:20.824Z,41.60
2022-08-19T13:30:42.074Z,42.26
2022-08-19T13:33:43.854Z,42.73
2022-08-19T13:36:45.976Z,42.11
2022-08-19T13:39:48.428Z,41.13
2022-08-19T13:42:52.761Z,40.56
2022-08-19T13:45:57.251Z,40.96
2022-08-19T13:48:59.437Z,40.52
2022-08-19T13:52:01.271Z,40.77
2022-08-19T13:55:04.359Z,40.24
2022-08-19T13:58:06.303Z,40.31
2022-08-19T14:01:08.676Z,40.27
2022-08-19T14:04:10.604Z,40.75
2022-08-19T14:07:12.382Z,40.58
2022-08-19T14:10:14.935Z,40.60
2022-08-19T14:13:21.180Z,40.93
2022-08-19T14:16:22.881Z,41.58
2022-08-19T14:19:24.682Z,41.67
2022-08-19T14:22:31.934Z,41.98
2022-08-19T14:25:35.068Z,41.52
2022-08-19T14:28:36.854Z,41.69
2022-08-19T14:31:40.894Z,42.10
2022-08-19T14:34:42.683Z,41.50
2022-08-19T14:37:56.081Z,41.46
2022-08-19T14:41:14.108Z,41.16
2022-08-19T14:44:15.974Z,40.70
2022-08-19T14:47:18.108Z,40.57
2022-08-19T14:50:21.431Z,40.31
2022-08-19T14:53:23.220Z,40.65
2022-08-19T14:56:27.981Z,41.14
2022-08-19T14:59:29.751Z,41.07
2022-08-19T15:02:34.594Z,40.77
2022-08-19T15:05:37.499Z,40.56
2022-08-19T15:08:41.177Z,40.44
2022-08-19T15:11:43.788Z,41.11
2022-08-19T15:14:51.271Z,41.10
2022-08-19T15:18:03.231Z,41.30
2022-08-19T15:21:05.832Z,41.46
2022-08-19T15:24:07.638Z,41.97
2022-08-19T15:27:09.328Z,42.56
2022-08-19T15:30:12.473Z,42.67
2022-08-19T15:33:15.384Z,42.95
2022-08-19T15:36:17.506Z,43.82
2022-08-19T15:39:21.706Z,44.27
2022-08-19T15:42:29.798Z,44.55
2022-08-19T15:45:33.012Z,44.44
2022-08-19T15:48:34.956Z,44.87
2022-08-19T15:51:39.224Z,45.45
2022-08-19T15:54:41.203Z,45.50
2022-08-19T15:58:01.720Z,45.82
2022-08-19T16:01:27.216Z,46.11
2022-08-19T16:04:47.874Z,46.40
2022-08-19T16:07:49.673Z,46.81
2022-08-19T16:10:51.368Z,47.07
2022-08-19T16:13:54.937Z,47.15
2022-08-19T16:16:57.136Z,47.22
2022-08-19T16:19:58.886Z,47.39
2022-08-19T16:23:03.492Z,47.59
2022-08-19T16:26:05.318Z,48.15
2022-08-19T16:29:11.964Z,48.71
2022-08-19T16:32:15.077Z,49.23
2022-08-19T16:35:16.863Z,49.41
2022-08-19T16:38:18.822Z,49.60
2022-08-19T16:41:21.437Z,49.76
2022-08-19T16:44:23.431Z,49.92
2022-08-19T16:47:25.326Z,50.06
2022-08-19T16:50:47.767Z,50.31
2022-08-19T16:53:49.078Z,50.65
2022-08-19T16:56:51.282Z,50.59
2022-08-19T16:59:52.990Z,50.89
2022-08-19T17:02:54.877Z,50.76
2022-08-19T17:06:02.642Z,50.95
2022-08-19T17:09:06.693Z,51.06
2022-08-19T17:12:08.665Z,51.30
2022-08-19T17:15:10.466Z,51.46
2022-08-19T17:18:13.647Z,51.35
2022-08-19T17:21:15.346Z,51.70
2022-08-19T17:24:17.177Z,51.62
2022-08-19T17:27:19.973Z,51.88
2022-08-19T17:30:22.726Z,51.96
2022-08-19T17:33:24.713Z,52.14
2022-08-19T17:36:29.411Z,52.36
2022-08-19T17:39:31.295Z,52.33
2022-08-19T17:42:40.278Z,52.68
2022-08-19T17:45:43.152Z,52.86
2022-08-19T17:48:51.725Z,52.91
2022-08-19T17:51:54.168Z,53.27
2022-08-19T17:54:56.632Z,53.36
2022-08-19T17:57:58.489Z,53.60
2022-08-19T18:01:01.729Z,53.83
2022-08-19T18:04:04.815Z,54.33
2022-08-19T18:07:06.721Z,54.75
2022-08-19T18:10:09.305Z,55.03
2022-08-19T18:13:17.683Z,55.18
2022-08-19T18:16:22.240Z,55.43
2022-08-19T18:19:25.452Z,55.63
2022-08-19T18:22:38.597Z,55.91
2022-08-19T18:25:43.629Z,56.37
2022-08-19T18:28:49.858Z,56.85
2022-08-19T18:31:51.885Z,57.26
2022-08-19T18:34:54.700Z,57.68
2022-08-19T18:37:59.125Z,57.98
2022-08-19T18:41:34.077Z,58.23
2022-08-19T18:44:59.744Z,58.51
2022-08-19T18:48:26.785Z,58.51
2022-08-19T18:51:32.878Z,58.79
2022-08-19T18:54:35.741Z,59.03
2022-08-19T18:57:37.660Z,59.03
2022-08-19T19:00:40.586Z,59.17
2022-08-19T19:03:53.688Z,59.71
2022-08-19T19:06:55.490Z,59.86
2022-08-19T19:09:57.302Z,60.03
2022-08-19T19:13:01.436Z,60.34
2022-08-19T19:16:04.176Z,60.21
2022-08-19T19:19:13.057Z,60.45
2022-08-19T19:22:19.557Z,60.61
2022-08-19T19:25:21.364Z,60.89
2022-08-19T19:28:28.366Z,61.01
2022-08-19T19:31:33.004Z,61.26
2022-08-19T19:34:37.778Z,61.55
2022-08-19T19:37:39.623Z,62.09
2022-08-19T19:40:41.419Z,63.41
2022-08-19T19:43:43.134Z,63.88
2022-08-19T19:46:45.280Z,63.83
2022-08-19T19:50:13.776Z,63.83
2022-08-19T19:53:15.226Z,63.85
2022-08-19T19:56:17.125Z,63.75
2022-08-19T19:59:19.435Z,64.13
2022-08-19T20:02:22.125Z,64.07
2022-08-19T20:05:25.101Z,64.17
2022-08-19T20:08:46.594Z,64.08
2022-08-19T20:11:53.488Z,64.24
2022-08-19T20:14:56.320Z,64.33
2022-08-19T20:17:59.738Z,64.33
2022-08-19T20:21:01.559Z,64.33
2022-08-19T20:24:09.365Z,64.59
2022-08-19T20:27:11.967Z,65.05
2022-08-19T20:30:19.527Z,65.43
2022-08-19T20:33:21.710Z,65.72
2022-08-19T20:36:24.913Z,65.98
2022-08-19T20:39:26.692Z,66.41
2022-08-19T20:42:28.622Z,66.61
2022-08-19T20:45:33.449Z,67.10
2022-08-19T20:48:38.621Z,67.37
2022-08-19T20:51:41.330Z,67.97
2022-08-19T20:54:43.300Z,68.74
2022-08-19T20:57:45.432Z,69.29
2022-08-19T21:00:48.267Z,69.43
2022-08-19T21:03:51.818Z,70.42
2022-08-19T21:06:54.859Z,70.45
2022-08-19T21:09:56.570Z,70.85
2022-08-19T21:12:58.826Z,71.45
2022-08-19T21:16:00.679Z,71.91
2022-08-19T21:19:04.665Z,71.87
2022-08-19T21:22:06.417Z,71.93
2022-08-19T21:25:08.344Z,72.08
2022-08-19T21:28:10.366Z,72.12
2022-08-19T21:31:12.229Z,72.86
2022-08-19T21:34:13.914Z,73.25
2022-08-19T21:37:25.602Z,73.44
2022-08-19T21:40:28.073Z,73.56
2022-08-19T21:43:29.937Z,73.47
2022-08-19T21:46:33.862Z,73.87
2022-08-19T21:49:38.622Z,74.16
2022-08-19T21:52:40.653Z,74.32
2022-08-19T21:55:42.389Z,74.34
2022-08-19T21:58:44.813Z,75.00
2022-08-19T22:01:50.585Z,75.25
2022-08-19T22:04:55.882Z,75.43
2022-08-19T22:07:59.365Z,76.07
2022-08-19T22:11:03.675Z,76.19
2022-08-19T22:14:05.885Z,76.30
2022-08-19T22:17:09.517Z,76.68
2022-08-19T22:20:18.676Z,76.77
2022-08-19T22:23:20.424Z,76.72
2022-08-19T22:26:22.577Z,77.26
2022-08-19T22:29:34.045Z,77.61
2022-08-19T22:32:36.924Z,77.66
2022-08-19T22:35:40.324Z,77.65
2022-08-19T22:38:42.167Z,77.82
2022-08-19T22:41:44.169Z,77.95
2022-08-19T22:44:46.326Z,78.05
2022-08-19T22:47:48.060Z,78.24
2022-08-19T22:51:08.848Z,78.43
2022-08-19T22:54:11.110Z,78.62
2022-08-19T22:57:13.824Z,78.79
2022-08-19T23:00:16.249Z,78.95
2022-08-19T23:03:18.186Z,79.23
2022-08-19T23:06:19.822Z,79.10
2022-08-19T23:09:23.502Z,79.12
2022-08-19T23:12:30.909Z,79.11
2022-08-19T23:15:33.671Z,79.20
2022-08-19T23:18:35.568Z,79.11
2022-08-19T23:21:41.520Z,79.33
2022-08-19T23:24:43.622Z,79.48
2022-08-19T23:28:04.594Z,79.32
2022-08-19T23:31:06.980Z,79.51
2022-08-19T23:34:09.005Z,79.60
2022-08-19T23:37:10.742Z,79.74
2022-08-19T23:40:12.533Z,79.94
2022-08-19T23:43:17.457Z,79.84
2022-08-19T23:46:28.296Z,80.36
2022-08-19T23:49:31.468Z,80.33
2022-08-19T23:52:34.795Z,80.21
2022-08-19T23:55:40.257Z,80.25
2022-08-19T23:58:42.096Z,80.44
